Time;durP1;ratioP1;P1;durP2;ratioP2;P2;SDS_P1;SDS_P2;PMS_P1;PMS_P2;Temp;Humidity;BMP_temperature;BMP_pressure;BME280_temperature;BME280_humidity;BME280_pressure;Samples;Min_cycle;Max_cycle;Signal;HPM_P1;HPM_P2
2022/01/24 00:00:00;;;;;;;6.90;4.25;;;;;;;2.32;61.14;101063.80;1766873;80;21517;-53
2022/01/24 00:02:29;;;;;;;5.97;4.27;;;;;;;2.41;61.30;101063.45;1756486;80;20964;-53
2022/01/24 00:04:55;;;;;;;6.33;4.75;;;;;;;2.43;61.44;101061.75;1762576;80;22328;-54
2022/01/24 00:07:24;;;;;;;6.50;4.40;;;;;;;2.42;61.43;101063.48;1749599;80;21636;-55
2022/01/24 00:09:54;;;;;;;5.92;3.72;;;;;;;2.46;61.28;101061.80;1754306;80;21513;-54
2022/01/24 00:12:27;;;;;;;5.08;4.45;;;;;;;2.50;61.32;101060.98;1755652;80;21549;-54
2022/01/24 00:17:36;;;;;;;5.05;4.33;;;;;;;2.58;61.14;101071.47;1760434;80;22292;-54
2022/01/24 00:28:10;;;;;;;8.20;4.80;;;;;;;2.45;61.54;101088.60;1747568;80;20937;-53
2022/01/24 00:30:38;;;;;;;7.78;5.22;;;;;;;2.46;61.52;101082.57;1758875;80;27775;-53
2022/01/24 00:33:04;;;;;;;8.53;5.00;;;;;;;2.43;60.93;101086.41;1759242;80;21443;-53
2022/01/24 00:35:31;;;;;;;6.03;5.03;;;;;;;2.40;61.21;101084.66;1765107;80;21497;-53
2022/01/24 00:38:00;;;;;;;8.20;5.78;;;;;;;2.37;61.70;101090.23;1754517;80;21446;-53
2022/01/24 00:40:27;;;;;;;6.83;4.95;;;;;;;2.42;61.58;101088.15;1751803;80;21441;-53
2022/01/24 00:42:56;;;;;;;8.30;5.92;;;;;;;2.37;61.73;101085.05;1762984;80;22328;-53
2022/01/24 00:45:38;;;;;;;6.60;5.50;;;;;;;2.33;61.27;101090.61;1752497;80;21409;-53
2022/01/24 00:56:00;;;;;;;9.33;6.25;;;;;;;2.14;61.64;101089.48;1748558;80;22383;-53
2022/01/24 00:58:26;;;;;;;8.58;6.60;;;;;;;2.19;61.75;101089.56;1747729;80;21584;-54
2022/01/24 01:03:12;;;;;;;9.18;6.17;;;;;;;2.68;65.85;101086.33;1775774;78;23207;-54
2022/01/24 01:19:24;;;;;;;12.78;8.18;;;;;;;2.29;59.18;101105.27;1717701;81;21399;-54
2022/01/24 01:21:51;;;;;;;11.57;7.95;;;;;;;2.22;59.75;101112.51;1739096;80;21550;-54
2022/01/24 01:24:18;;;;;;;10.40;7.78;;;;;;;2.11;59.73;101117.97;1723336;80;21393;-54
2022/01/24 01:26:53;;;;;;;11.08;7.67;;;;;;;2.00;59.80;101115.63;1744401;80;20910;-54
2022/01/24 01:29:19;;;;;;;12.23;8.68;;;;;;;1.95;60.02;101120.33;1728496;80;20996;-54
2022/01/24 01:31:55;;;;;;;12.07;7.60;;;;;;;1.84;59.93;101121.01;1732990;80;21469;-54
2022/01/24 01:39:42;;;;;;;10.32;7.55;;;;;;;1.71;60.39;101118.63;1727162;80;21490;-54
2022/01/24 01:55:41;;;;;;;9.55;7.50;;;;;;;0.91;60.54;101131.41;1740777;80;20997;-54
2022/01/24 01:58:09;;;;;;;;;;;;;;;0.63;60.67;101141.61;1734689;80;21572;-54
2022/01/24 02:00:38;;;;;;;8.60;7.00;;;;;;;0.43;61.17;101145.03;1725103;80;21809;-54
2022/01/24 02:03:06;;;;;;;8.93;6.70;;;;;;;0.30;61.25;101146.46;1732778;80;21000;-54
2022/01/24 02:05:33;;;;;;;9.95;6.35;;;;;;;-0.02;61.61;101150.05;1688050;82;21051;-54
2022/01/24 02:08:00;;;;;;;9.10;7.08;;;;;;;-0.09;62.03;101151.16;1716220;81;21501;-54
2022/01/24 02:10:27;;;;;;;11.57;7.45;;;;;;;-0.13;62.26;101154.09;1720936;80;21490;-54
2022/01/24 02:12:55;;;;;;;8.53;7.12;;;;;;;-0.21;62.38;101153.90;1733651;80;22680;-54
2022/01/24 02:18:08;;;;;;;10.32;7.50;;;;;;;0.02;62.50;101148.42;1699762;80;21569;-54
2022/01/24 02:21:08;;;;;;;9.80;7.53;;;;;;;-0.04;62.66;101146.95;1729405;80;21522;-54
2022/01/24 02:25:55;;;;;;;9.30;7.45;;;;;;;0.08;62.49;101155.45;1702416;81;22659;-53
2022/01/24 02:28:24;;;;;;;12.03;7.47;;;;;;;-0.13;62.01;101151.90;1726948;80;21397;-54
2022/01/24 02:33:35;;;;;;;8.88;7.40;;;;;;;-0.08;62.45;101156.77;1715913;80;21474;-55
2022/01/24 02:36:01;;;;;;;12.68;7.65;;;;;;;-0.06;62.62;101155.99;1725359;81;21387;-55
2022/01/24 02:49:13;;;;;;;10.70;7.70;;;;;;;0.38;61.83;101157.45;1713245;81;21441;-53
2022/01/24 02:51:46;;;;;;;11.25;8.08;;;;;;;0.42;61.51;101156.24;1724047;80;22676;-54
2022/01/24 02:54:24;;;;;;;8.58;7.12;;;;;;;0.37;61.48;101158.70;1742241;80;21395;-53
2022/01/24 02:56:50;;;;;;;9.58;6.85;;;;;;;0.08;61.51;101165.37;1726461;80;21502;-54
2022/01/24 02:59:17;;;;;;;8.45;6.53;;;;;;;0.03;61.54;101156.62;1722941;80;20970;-54
2022/01/24 03:01:44;;;;;;;7.87;5.58;;;;;;;-0.01;61.49;101166.44;1723555;81;21690;-54
2022/01/24 03:04:10;;;;;;;9.93;6.58;;;;;;;-0.03;61.25;101162.52;1717277;81;22584;-54
2022/01/24 03:06:37;;;;;;;8.20;6.17;;;;;;;-0.11;61.32;101166.63;1712727;82;21486;-53
2022/01/24 03:09:04;;;;;;;7.67;5.93;;;;;;;-0.12;61.70;101167.45;1716886;82;21514;-53
2022/01/24 03:11:54;;;;;;;9.48;6.45;;;;;;;-0.11;61.55;101165.77;1720885;81;21430;-54
2022/01/24 03:13:59;;;;;;;7.65;6.70;;;;;;;-0.13;61.42;101169.60;1729906;81;21491;-54
2022/01/24 03:16:26;;;;;;;9.38;5.95;;;;;;;-0.14;61.14;101175.59;1725952;80;21714;-54
2022/01/24 03:18:52;;;;;;;5.92;4.78;;;;;;;-0.14;61.18;101173.44;1721901;80;21562;-54
2022/01/24 03:21:19;;;;;;;8.60;6.47;;;;;;;-0.15;62.23;101173.86;1725435;81;21471;-54
2022/01/24 03:23:46;;;;;;;8.55;6.72;;;;;;;-0.14;62.10;101184.64;1723795;80;22752;-54
2022/01/24 03:26:13;;;;;;;10.23;6.58;;;;;;;-0.16;62.35;101182.44;1727135;80;21458;-55
2022/01/24 03:28:40;;;;;;;6.90;5.70;;;;;;;-0.32;61.94;101185.06;1726575;80;22269;-54
2022/01/24 03:31:06;;;;;;;8.38;7.08;;;;;;;-0.40;61.81;101186.55;1715265;80;21053;-54
2022/01/24 03:33:32;;;;;;;8.55;6.42;;;;;;;-0.46;61.50;101185.10;1720295;80;20870;-54
2022/01/24 03:35:59;;;;;;;7.92;6.15;;;;;;;-0.41;61.55;101184.81;1725817;81;20989;-52
2022/01/24 03:38:25;;;;;;;8.15;6.12;;;;;;;-0.45;61.15;101183.86;1728011;80;21438;-52
2022/01/24 03:40:52;;;;;;;9.80;6.37;;;;;;;-0.50;61.84;101178.97;1725391;81;21496;-55
2022/01/24 03:43:19;;;;;;;8.48;6.53;;;;;;;-0.57;61.83;101182.22;1719945;81;20867;-54
2022/01/24 03:46:09;;;;;;;8.88;6.87;;;;;;;-0.68;61.33;101184.53;1724803;81;21449;-54
2022/01/24 03:51:01;;;;;;;8.15;6.65;;;;;;;-0.79;67.52;101204.02;1712897;82;21351;-55
2022/01/24 03:53:27;;;;;;;8.07;6.60;;;;;;;-0.85;67.21;101202.14;1726244;81;22295;-55
2022/01/24 03:55:53;;;;;;;8.30;6.58;;;;;;;-0.92;65.89;101209.64;1729553;81;20959;-55
2022/01/24 03:58:20;;;;;;;8.60;6.78;;;;;;;-0.99;65.99;101217.64;1726346;80;21423;-55
2022/01/24 04:00:46;;;;;;;9.48;7.37;;;;;;;-0.96;66.39;101216.84;1706279;80;21533;-54
2022/01/24 04:03:14;;;;;;;7.03;6.28;;;;;;;-0.87;66.24;101211.94;1727679;81;21434;-52
2022/01/24 04:05:42;;;;;;;10.72;7.17;;;;;;;-0.77;66.45;101210.50;1739482;80;22415;-54
2022/01/24 04:08:08;;;;;;;8.55;6.78;;;;;;;-0.77;66.38;101203.64;1738530;80;21379;-56
2022/01/24 04:10:42;;;;;;;7.42;5.80;;;;;;;-0.79;65.99;101206.17;1742267;80;20974;-55
2022/01/24 04:13:09;;;;;;;9.55;6.97;;;;;;;-0.86;66.26;101199.50;1740658;80;21049;-52
2022/01/24 04:15:57;;;;;;;8.88;6.58;;;;;;;-0.92;66.09;101197.62;1733149;80;21467;-53
2022/01/24 04:18:31;;;;;;;9.75;6.83;;;;;;;-0.93;71.23;101204.89;1735188;80;22706;-53
2022/01/24 04:23:25;;;;;;;10.55;7.03;;;;;;;-0.88;71.35;101185.67;1743572;80;21414;-53
2022/01/24 04:25:52;;;;;;;9.85;7.00;;;;;;;-0.87;71.56;101182.25;1726340;80;21554;-53
2022/01/24 04:28:19;;;;;;;10.00;6.85;;;;;;;-0.82;71.88;101170.34;1722816;80;21426;-53
2022/01/24 04:30:47;;;;;;;11.97;7.50;;;;;;;-0.77;71.81;101172.66;1745315;80;22358;-53
2022/01/24 04:33:14;;;;;;;10.63;7.20;;;;;;;-0.70;71.54;101168.08;1741307;80;21617;-53
2022/01/24 04:35:41;;;;;;;11.63;7.00;;;;;;;-0.71;70.79;101174.53;1740681;80;21402;-53
2022/01/24 04:38:09;;;;;;;10.10;7.65;;;;;;;-0.70;70.76;101174.97;1731645;80;21465;-53
2022/01/24 04:40:35;;;;;;;10.53;8.00;;;;;;;-0.68;71.01;101173.30;1743327;80;21502;-53
2022/01/24 04:43:24;;;;;;;10.00;6.55;;;;;;;-0.65;69.87;101175.98;1747646;80;22568;-53
2022/01/24 04:45:52;;;;;;;12.10;7.67;;;;;;;-0.63;69.26;101176.89;1734652;80;21403;-53
2022/01/24 04:55:55;;;;;;;12.43;7.87;;;;;;;-1.00;67.28;101213.29;1694515;81;22389;-53
2022/01/24 04:58:22;;;;;;;12.53;7.65;;;;;;;-0.88;66.96;101215.38;1725551;80;21563;-54
2022/01/24 05:00:48;;;;;;;9.75;7.62;;;;;;;-0.62;66.84;101219.57;1746716;80;21503;-54
2022/01/24 05:03:14;;;;;;;11.97;8.13;;;;;;;-0.51;66.90;101209.93;1731568;81;21525;-53
2022/01/24 05:05:41;;;;;;;13.48;8.50;;;;;;;-0.47;66.20;101211.37;1740270;80;21396;-53
2022/01/24 05:08:09;;;;;;;15.05;9.18;;;;;;;-0.56;65.99;101215.41;1731863;80;22398;-53
2022/01/24 05:10:42;;;;;;;15.45;9.28;;;;;;;-0.63;65.91;101220.39;1728759;81;21542;-53
2022/01/24 05:21:33;;;;;;;16.02;9.98;;;;;;;-0.31;64.63;101213.94;1738156;80;22694;-53
2022/01/24 05:23:49;;;;;;;16.32;9.40;;;;;;;-0.34;64.73;101211.29;1739384;80;21516;-53
2022/01/24 05:26:16;;;;;;;17.15;10.03;;;;;;;-0.42;63.80;101216.65;1746691;80;21486;-53
2022/01/24 05:28:42;;;;;;;14.78;9.23;;;;;;;-0.50;65.37;101212.56;1734417;80;21491;-53
2022/01/24 05:31:09;;;;;;;15.60;9.20;;;;;;;-0.51;64.16;101218.58;1745110;80;21510;-53
2022/01/24 05:33:35;;;;;;;19.70;9.30;;;;;;;-0.47;64.37;101227.27;1733894;81;22304;-53
2022/01/24 05:36:02;;;;;;;15.18;9.53;;;;;;;-0.48;63.77;101234.16;1737995;80;21436;-54
2022/01/24 05:38:28;;;;;;;12.33;9.35;;;;;;;-0.51;63.75;101237.97;1735555;80;21543;-53
2022/01/24 05:40:55;;;;;;;15.45;9.08;;;;;;;0.45;67.75;101231.34;1750827;80;21573;-53
2022/01/24 05:43:22;;;;;;;12.00;8.73;;;;;;;0.24;69.55;101229.98;1745310;80;21579;-53
2022/01/24 05:45:48;;;;;;;10.98;8.08;;;;;;;0.21;71.14;101232.52;1739476;80;22306;-52
2022/01/24 05:48:15;;;;;;;11.55;7.70;;;;;;;0.23;70.92;101234.72;1724122;80;21418;-52
2022/01/24 05:50:41;;;;;;;11.60;7.87;;;;;;;0.24;71.33;101239.04;1724567;81;21484;-52
2022/01/24 05:53:08;;;;;;;11.80;8.05;;;;;;;0.23;70.74;101229.94;1730237;80;21359;-52
2022/01/24 05:55:35;;;;;;;11.53;7.35;;;;;;;1.65;70.03;101224.84;1743063;81;20961;-52
2022/01/24 05:58:01;;;;;;;12.97;7.90;;;;;;;0.60;72.84;101230.41;1735139;80;22573;-52
2022/01/24 06:00:27;;;;;;;10.58;6.95;;;;;;;0.33;74.16;101230.64;1746564;81;21530;-52
2022/01/24 06:02:54;;;;;;;13.78;6.83;;;;;;;0.18;73.65;101229.84;1731748;80;21586;-53
2022/01/24 06:05:20;;;;;;;7.97;5.87;;;;;;;0.14;73.22;101229.31;1736515;80;21473;-52
2022/01/24 06:07:49;;;;;;;7.45;4.65;;;;;;;0.05;73.11;101230.37;1735207;80;21614;-52
2022/01/24 06:10:15;;;;;;;8.53;5.83;;;;;;;-0.04;73.11;101236.17;1733383;80;22341;-53
2022/01/24 06:12:41;;;;;;;9.08;6.10;;;;;;;-0.03;71.55;101239.23;1742152;80;21503;-53
2022/01/24 06:15:08;;;;;;;9.88;6.30;;;;;;;0.01;70.68;101237.59;1739342;80;20839;-53
2022/01/24 06:17:35;;;;;;;;;;;;;;;0.01;71.17;101240.19;1744604;79;21401;-52
2022/01/24 06:20:02;;;;;;;10.48;6.37;;;;;;;0.36;68.64;101248.84;1742487;80;20437;-52
2022/01/24 06:22:28;;;;;;;8.00;6.25;;;;;;;0.05;70.02;101254.94;1737289;80;22293;-54
2022/01/24 06:24:55;;;;;;;11.18;6.42;;;;;;;-0.01;71.43;101264.70;1720529;82;21471;-55
2022/01/24 06:27:23;;;;;;;9.18;6.47;;;;;;;-0.09;70.93;101263.22;1724786;80;21494;-53
2022/01/24 06:29:49;;;;;;;11.22;6.30;;;;;;;-0.15;68.57;101268.63;1740713;82;21633;-53
2022/01/24 06:32:16;;;;;;;8.13;5.67;;;;;;;-0.29;70.13;101262.67;1732604;80;20928;-52
2022/01/24 06:34:42;;;;;;;10.78;6.20;;;;;;;-0.27;72.95;101273.05;1728486;80;22582;-53
2022/01/24 06:37:09;;;;;;;9.18;6.03;;;;;;;2.31;68.28;101269.69;1724082;80;21463;-52
2022/01/24 13:25:30;;;;;;;12.88;8.05;;;;;;;3.81;50.18;101076.20;1732340;80;22393;-54
2022/01/24 13:28:06;;;;;;;12.90;8.25;;;;;;;3.65;51.24;101076.92;1735084;80;21514;-54
2022/01/24 13:30:42;;;;;;;11.12;8.13;;;;;;;3.57;52.12;101083.80;1734179;80;22098;-54
2022/01/24 13:33:20;;;;;;;10.50;6.13;;;;;;;3.46;52.49;101078.06;1735045;80;20965;-53
2022/01/24 13:35:49;;;;;;;13.32;8.00;;;;;;;3.39;52.71;101084.09;1737325;80;21538;-55
2022/01/24 13:38:24;;;;;;;9.90;7.10;;;;;;;3.34;52.63;101079.70;1731732;80;22420;-53
2022/01/24 13:41:09;;;;;;;10.32;7.37;;;;;;;3.36;53.12;101077.98;1736158;80;20910;-54
2022/01/24 13:43:54;;;;;;;14.63;7.22;;;;;;;3.22;52.44;101078.72;1695323;81;21560;-53
2022/01/24 13:46:29;;;;;;;12.55;7.90;;;;;;;3.08;53.26;101085.05;1694853;81;21525;-55
2022/01/24 13:49:03;;;;;;;14.38;7.60;;;;;;;3.10;53.74;101086.38;1703794;83;21498;-55
2022/01/24 13:51:46;;;;;;;12.82;8.70;;;;;;;2.88;53.95;101088.74;1700734;81;22370;-55
2022/01/24 13:54:20;;;;;;;10.30;7.85;;;;;;;2.81;53.37;101088.66;1708142;83;21522;-55
2022/01/24 13:56:50;;;;;;;12.10;8.78;;;;;;;2.82;54.23;101086.48;1685205;81;21610;-54
2022/01/24 13:59:28;;;;;;;17.20;9.03;;;;;;;2.78;54.62;101089.47;1709001;83;21486;-54
2022/01/24 14:02:22;;;;;;;14.63;9.03;;;;;;;2.82;54.47;101092.98;1702593;81;21382;-56
2022/01/24 14:04:52;;;;;;;14.53;8.63;;;;;;;2.78;54.39;101087.31;1677220;83;22682;-55
2022/01/24 14:07:34;;;;;;;17.07;8.93;;;;;;;2.72;54.54;101086.38;1684140;82;21494;-54
2022/01/24 14:10:04;;;;;;;12.78;9.00;;;;;;;2.67;54.55;101090.63;1681690;82;21492;-54
2022/01/24 14:12:41;;;;;;;11.12;7.70;;;;;;;2.64;54.87;101088.02;1672022;82;21495;-54
2022/01/24 14:15:11;;;;;;;12.07;7.80;;;;;;;2.61;55.29;101090.56;1670031;82;21509;-54
2022/01/24 14:17:49;;;;;;;12.85;7.42;;;;;;;2.49;55.32;101083.49;1679970;82;22398;-54
2022/01/24 14:20:11;;;;;;;9.78;7.58;;;;;;;2.40;54.85;101087.69;1682528;83;21565;-55
2022/01/24 14:22:51;;;;;;;12.37;8.08;;;;;;;2.42;55.38;101088.58;1703572;81;21787;-54
2022/01/24 14:25:26;;;;;;;12.25;7.15;;;;;;;2.33;55.08;101086.72;1703958;81;20977;-54
2022/01/24 14:28:07;;;;;;;10.70;6.90;;;;;;;2.28;55.10;101091.86;1679369;83;21501;-54
2022/01/24 14:30:44;;;;;;;10.13;7.83;;;;;;;2.26;55.41;101086.18;1701310;81;21490;-56
2022/01/24 14:33:23;;;;;;;11.30;7.33;;;;;;;2.25;55.33;101085.31;1696711;81;21465;-53
2022/01/24 14:36:09;;;;;;;10.68;7.15;;;;;;;2.18;54.76;101085.20;1699922;81;21474;-56
2022/01/24 14:38:44;;;;;;;12.37;6.90;;;;;;;2.14;55.36;101084.29;1701036;81;21499;-54
2022/01/24 14:41:39;;;;;;;10.18;6.72;;;;;;;2.06;55.26;101089.37;1702382;82;21526;-54
2022/01/24 14:46:54;;;;;;;9.78;6.95;;;;;;;1.88;55.12;101095.56;1707344;81;20945;-53
2022/01/24 14:49:24;;;;;;;9.03;5.83;;;;;;;1.85;55.13;101098.13;1710468;82;21480;-54
2022/01/24 14:52:02;;;;;;;10.35;5.90;;;;;;;1.84;54.90;101102.42;1697348;81;21983;-55
2022/01/24 14:54:30;;;;;;;;;;;;;;;1.71;54.61;101100.08;1700145;81;20981;-54
2022/01/24 14:56:58;;;;;;;8.28;5.37;;;;;;;1.67;54.75;101102.14;1679988;83;22328;-54
2022/01/24 14:59:26;;;;;;;7.90;5.17;;;;;;;1.66;55.07;101098.25;1683591;84;21607;-54
2022/01/24 15:01:53;;;;;;;;;;;;;;;1.64;54.72;101106.40;1691185;83;21601;-53
2022/01/24 15:04:19;;;;;;;7.90;5.80;;;;;;;1.62;55.03;101109.39;1692346;83;20928;-53
2022/01/24 15:06:46;;;;;;;8.18;6.03;;;;;;;1.66;54.83;101103.44;1689560;83;20965;-53
2022/01/24 15:09:21;;;;;;;9.15;5.55;;;;;;;1.68;54.99;101105.20;1675868;83;22347;-55
2022/01/24 15:11:48;;;;;;;7.20;5.80;;;;;;;1.70;55.15;101111.28;1684785;83;21583;-54
2022/01/24 15:14:22;;;;;;;7.75;5.40;;;;;;;1.68;55.30;101109.52;1697757;83;21521;-53
2022/01/24 15:27:13;;;;;;;11.20;7.00;;;;;;;1.69;55.49;101109.52;1637075;86;21502;-56
2022/01/24 15:29:40;;;;;;;;;;;;;;;1.74;55.13;101114.37;1660930;84;21637;-53
2022/01/24 15:32:09;;;;;;;12.25;6.53;;;;;;;1.77;55.99;101113.97;1682858;84;20104;-53
2022/01/24 15:34:38;;;;;;;10.30;6.62;;;;;;;1.74;54.76;101110.91;1670369;84;21657;-55
2022/01/24 15:37:05;;;;;;;10.58;6.92;;;;;;;1.76;55.34;101111.80;1674705;84;21439;-55
2022/01/24 15:39:35;;;;;;;10.35;6.45;;;;;;;1.77;55.38;101106.19;1727860;82;21447;-55
2022/01/24 15:42:14;;;;;;;8.83;7.15;;;;;;;1.77;55.11;101108.34;1725663;80;21613;-55
2022/01/24 15:44:49;;;;;;;11.93;7.05;;;;;;;1.84;55.47;101113.23;1725549;80;21443;-55
2022/01/24 15:49:37;;;;;;;9.58;6.22;;;;;;;1.83;55.67;101103.69;1725713;82;21534;-54
2022/01/24 15:52:04;;;;;;;8.58;6.53;;;;;;;1.84;55.79;101097.23;1725141;82;21526;-54
2022/01/24 15:54:32;;;;;;;9.75;6.60;;;;;;;1.89;55.95;101102.08;1721631;82;21518;-54
2022/01/24 15:59:46;;;;;;;8.05;6.55;;;;;;;1.97;56.01;101097.01;1731333;82;21515;-54
2022/01/24 16:02:13;;;;;;;10.85;7.42;;;;;;;1.89;55.04;101085.22;1727291;80;21560;-54
2022/01/24 16:04:40;;;;;;;10.55;7.03;;;;;;;1.91;55.29;101086.11;1731622;82;21479;-54
2022/01/24 16:07:08;;;;;;;9.23;6.90;;;;;;;1.92;55.63;101088.27;1720262;82;21359;-54
2022/01/24 16:09:35;;;;;;;9.40;6.83;;;;;;;1.88;55.45;101073.52;1728777;82;21411;-53
2022/01/24 16:12:02;;;;;;;9.65;6.35;;;;;;;1.85;55.19;101082.13;1717080;82;22688;-53
2022/01/24 16:14:30;;;;;;;8.83;6.60;;;;;;;1.85;55.35;101078.24;1728215;82;20934;-56
2022/01/24 16:16:57;;;;;;;8.98;6.40;;;;;;;1.82;54.91;101087.27;1720035;80;21415;-55
2022/01/24 16:19:26;;;;;;;7.90;6.45;;;;;;;1.84;55.48;101086.86;1708927;80;21431;-54
2022/01/24 16:22:15;;;;;;;10.35;6.00;;;;;;;1.87;55.63;101081.73;1720135;81;21628;-53
2022/01/24 16:26:59;;;;;;;10.40;6.70;;;;;;;1.79;55.21;101085.04;1710810;81;20691;-54
2022/01/24 16:29:27;;;;;;;8.08;5.65;;;;;;;1.71;55.08;101087.52;1713611;81;21478;-54
2022/01/24 16:31:54;;;;;;;8.13;6.20;;;;;;;1.70;55.03;101085.78;1714815;81;21578;-54
2022/01/24 16:34:21;;;;;;;9.58;5.80;;;;;;;1.75;55.34;101091.49;1716237;81;27157;-54
2022/01/24 16:36:48;;;;;;;11.20;6.92;;;;;;;1.81;55.62;101092.02;1714800;81;23118;-54
2022/01/24 16:39:18;;;;;;;8.70;6.50;;;;;;;1.90;55.89;101084.38;1715331;81;20988;-56
2022/01/24 16:42:12;;;;;;;8.45;6.78;;;;;;;1.95;55.60;101089.62;1714601;81;21429;-55
2022/01/24 16:47:12;;;;;;;7.80;6.25;;;;;;;1.94;55.14;101097.84;1712079;81;21340;-53
2022/01/24 16:49:46;;;;;;;12.28;7.15;;;;;;;1.93;55.50;101088.30;1718812;80;22721;-54
2022/01/24 16:52:13;;;;;;;11.38;7.45;;;;;;;1.88;55.00;101089.94;1714664;81;21463;-54
2022/01/24 16:54:47;;;;;;;11.15;7.58;;;;;;;1.88;55.02;101083.45;1712859;82;21521;-53
2022/01/24 16:57:12;;;;;;;9.73;6.90;;;;;;;1.90;55.21;101086.08;1718629;81;20886;-55
2022/01/24 16:59:40;;;;;;;10.82;7.00;;;;;;;1.98;55.32;101093.98;1720233;82;21504;-55
2022/01/24 17:02:08;;;;;;;;;;;;;;;1.99;55.34;101085.36;1717776;81;22315;-53
2022/01/24 17:04:35;;;;;;;10.68;7.12;;;;;;;1.94;54.81;101091.36;1710136;82;20811;-54
2022/01/24 17:07:02;;;;;;;10.78;7.08;;;;;;;1.81;54.80;101090.72;1713323;82;21525;-54
2022/01/24 17:09:29;;;;;;;11.53;7.30;;;;;;;1.85;55.37;101096.40;1683711;83;21478;-54
2022/01/24 17:11:59;;;;;;;10.13;6.77;;;;;;;1.89;55.63;101096.89;1679760;83;21541;-55
2022/01/24 17:14:27;;;;;;;11.60;6.97;;;;;;;1.88;55.45;101098.16;1675338;83;22666;-55
2022/01/24 17:16:54;;;;;;;10.72;6.20;;;;;;;1.83;55.16;101100.69;1679914;83;21513;-54
2022/01/24 17:19:22;;;;;;;9.50;6.92;;;;;;;1.83;55.33;101100.69;1671073;83;21514;-55
2022/01/24 17:21:50;;;;;;;10.13;7.47;;;;;;;1.86;55.70;101094.23;1701593;83;21466;-54
2022/01/24 17:24:17;;;;;;;11.22;7.25;;;;;;;1.86;55.51;101102.02;1694241;83;21423;-54
2022/01/24 17:26:43;;;;;;;9.78;6.75;;;;;;;1.82;55.17;101102.82;1690920;82;22373;-54
2022/01/24 17:29:11;;;;;;;12.15;7.35;;;;;;;1.82;55.25;101095.47;1710613;81;21467;-55
2022/01/24 17:31:38;;;;;;;8.90;6.72;;;;;;;1.77;55.10;101096.67;1701427;83;20994;-54
2022/01/24 17:34:05;;;;;;;10.43;6.90;;;;;;;1.69;55.17;101095.69;1689917;83;20911;-54
2022/01/24 17:36:32;;;;;;;10.65;6.60;;;;;;;1.66;55.14;101104.73;1706886;83;21514;-54
2022/01/24 17:38:59;;;;;;;8.83;5.83;;;;;;;1.67;55.20;101105.16;1703748;83;22284;-54
2022/01/24 17:41:27;;;;;;;10.58;6.87;;;;;;;1.65;55.16;101097.78;1707448;83;21356;-54
2022/01/24 17:43:53;;;;;;;9.48;6.55;;;;;;;1.57;54.80;101097.66;1701282;82;21514;-54
2022/01/24 17:46:20;;;;;;;7.83;4.72;;;;;;;1.60;54.92;101104.61;1709586;81;21447;-54
2022/01/24 17:48:47;;;;;;;10.80;7.22;;;;;;;1.67;55.34;101097.39;1703058;83;21530;-54
2022/01/24 17:51:14;;;;;;;11.08;6.92;;;;;;;1.68;55.54;101106.50;1696644;82;22391;-54
2022/01/24 17:53:44;;;;;;;10.23;6.78;;;;;;;1.69;55.09;101102.17;1706558;82;21416;-54
2022/01/24 17:56:09;;;;;;;7.92;6.20;;;;;;;1.70;55.06;101102.20;1706088;81;21461;-54
2022/01/24 17:58:36;;;;;;;9.65;6.37;;;;;;;1.68;55.21;101097.85;1700790;83;21493;-53
2022/01/24 18:01:03;;;;;;;9.68;6.53;;;;;;;1.69;55.00;101091.37;1697583;82;21596;-51
2022/01/24 18:03:32;;;;;;;8.85;6.78;;;;;;;1.65;54.99;101099.09;1700108;82;21668;-53
2022/01/24 18:05:58;;;;;;;9.48;6.42;;;;;;;1.65;55.06;101098.66;1697669;83;21510;-53
2022/01/24 18:08:27;;;;;;;8.08;5.87;;;;;;;1.62;55.06;101094.73;1693898;83;27566;-53
2022/01/24 18:10:54;;;;;;;8.28;5.83;;;;;;;1.57;54.90;101098.95;1696777;83;21463;-53
2022/01/24 18:13:21;;;;;;;10.48;7.58;;;;;;;1.60;55.42;101095.53;1697848;83;20895;-53
2022/01/24 18:15:51;;;;;;;9.80;6.95;;;;;;;1.60;55.37;101098.13;1667736;83;22395;-53
2022/01/24 18:18:17;;;;;;;9.63;6.67;;;;;;;1.61;55.38;101102.48;1698686;82;21328;-54
2022/01/24 18:20:43;;;;;;;10.40;6.63;;;;;;;1.57;55.21;101095.07;1714953;82;21010;-54
2022/01/24 18:23:10;;;;;;;7.45;5.53;;;;;;;1.60;55.65;101094.23;1724677;82;21410;-54
2022/01/24 18:25:37;;;;;;;9.80;7.13;;;;;;;1.57;55.39;101095.50;1728771;81;21443;-54
2022/01/24 18:28:04;;;;;;;9.93;7.10;;;;;;;1.66;55.36;101103.00;1727400;80;21533;-54
2022/01/24 18:30:31;;;;;;;9.48;6.80;;;;;;;1.68;55.41;101088.34;1720430;82;20895;-55
2022/01/24 18:32:58;;;;;;;13.05;8.08;;;;;;;1.63;54.98;101090.41;1714415;80;21464;-54
2022/01/24 18:35:24;;;;;;;9.15;6.25;;;;;;;1.65;55.29;101092.60;1730772;80;21500;-54
2022/01/24 18:37:51;;;;;;;10.30;6.85;;;;;;;1.64;57.81;101091.73;1737615;80;20988;-53
2022/01/24 18:40:18;;;;;;;9.80;6.33;;;;;;;1.64;55.97;101093.44;1718012;82;22475;-54
2022/01/24 18:42:45;;;;;;;8.80;5.83;;;;;;;1.69;55.86;101094.39;1718532;80;21823;-54
2022/01/24 18:45:14;;;;;;;11.03;6.45;;;;;;;1.73;55.86;101097.08;1684890;84;21408;-55
2022/01/24 18:47:41;;;;;;;11.18;6.03;;;;;;;1.78;55.67;101099.73;1683319;82;21352;-55
2022/01/24 18:50:09;;;;;;;8.40;6.35;;;;;;;1.70;56.69;101094.42;1671305;83;21558;-54
2022/01/24 18:52:37;;;;;;;8.23;6.08;;;;;;;1.67;55.64;101087.87;1717957;80;21551;-54
2022/01/24 18:55:04;;;;;;;8.88;5.72;;;;;;;1.64;55.32;101092.14;1723604;80;21398;-54
2022/01/24 18:57:32;;;;;;;8.65;6.35;;;;;;;1.64;55.27;101094.33;1721571;82;21466;-54
2022/01/24 18:59:58;;;;;;;;;;;;;;;1.59;54.96;101091.21;1743063;80;21324;-54
2022/01/24 19:02:25;;;;;;;10.40;6.40;;;;;;;1.47;55.03;101092.75;1719621;82;20321;-54
2022/01/24 19:04:51;;;;;;;9.40;6.40;;;;;;;1.49;54.44;101091.05;1711233;82;22647;-56
2022/01/24 19:07:18;;;;;;;10.43;6.90;;;;;;;1.50;55.05;101077.22;1681874;84;21083;-55
2022/01/24 19:09:45;;;;;;;8.18;5.87;;;;;;;1.53;55.30;101080.31;1729850;82;20993;-56
2022/01/24 19:12:11;;;;;;;10.48;5.95;;;;;;;1.48;55.04;101074.17;1721779;81;21432;-54
2022/01/24 19:14:40;;;;;;;8.88;5.72;;;;;;;1.43;55.18;101072.81;1718833;82;21473;-54
2022/01/24 19:17:11;;;;;;;8.60;6.37;;;;;;;1.40;54.99;101077.06;1726122;81;22364;-54
2022/01/24 19:20:00;;;;;;;10.40;6.15;;;;;;;1.38;55.03;101080.91;1711431;82;21133;-53
2022/01/24 19:25:03;;;;;;;9.43;6.22;;;;;;;1.56;55.67;101075.16;1685323;84;21522;-56
2022/01/24 19:27:30;;;;;;;10.98;7.17;;;;;;;1.49;54.98;101074.20;1665837;83;20993;-54
2022/01/24 19:29:56;;;;;;;10.45;6.08;;;;;;;1.52;54.77;101075.96;1666901;83;22362;-54
2022/01/24 19:32:23;;;;;;;10.80;6.42;;;;;;;1.53;55.36;101073.40;1666126;84;21383;-53
2022/01/24 19:34:50;;;;;;;9.37;6.83;;;;;;;1.53;54.72;101072.10;1651663;85;21568;-54
2022/01/24 19:37:16;;;;;;;8.10;5.83;;;;;;;1.55;55.20;101073.44;1663350;85;21456;-54
2022/01/24 19:39:43;;;;;;;7.15;5.28;;;;;;;1.50;54.96;101074.63;1656095;85;21499;-53
2022/01/24 19:42:10;;;;;;;8.43;6.30;;;;;;;1.49;54.89;101074.63;1669878;84;21587;-54
2022/01/24 19:44:38;;;;;;;7.78;5.40;;;;;;;1.45;54.00;101077.59;1710939;82;21010;-54
2022/01/24 19:47:07;;;;;;;8.50;5.80;;;;;;;1.53;54.41;101075.13;1719518;82;21516;-54
2022/01/24 19:49:34;;;;;;;10.20;6.03;;;;;;;1.55;54.56;101076.02;1680613;82;21039;-54
2022/01/24 19:52:02;;;;;;;;;;;;;;;1.59;54.32;101075.66;1726525;82;21566;-54
2022/01/24 19:54:32;;;;;;;10.60;6.58;;;;;;;1.54;54.07;101075.56;1719883;82;22328;-54
2022/01/24 19:57:07;;;;;;;10.43;5.90;;;;;;;1.52;54.27;101082.01;1709035;82;21467;-54
2022/01/24 19:59:47;;;;;;;11.57;6.72;;;;;;;1.59;54.39;101075.22;1727244;80;21490;-54
2022/01/24 20:02:00;;;;;;;10.15;7.08;;;;;;;1.64;54.79;101084.36;1724021;80;21470;-53
2022/01/24 20:04:27;;;;;;;11.75;6.30;;;;;;;1.63;55.06;101075.72;1727565;80;21517;-54
2022/01/24 20:06:55;;;;;;;10.90;6.53;;;;;;;1.66;54.87;101076.22;1725433;80;22346;-54
2022/01/24 20:09:22;;;;;;;10.20;6.55;;;;;;;1.69;54.96;101068.46;1736127;80;21424;-55
2022/01/24 20:11:50;;;;;;;9.85;6.35;;;;;;;1.63;54.44;101065.34;1728791;80;21477;-54
2022/01/24 20:14:17;;;;;;;11.22;6.62;;;;;;;1.54;54.65;101053.52;1732671;80;21445;-53
2022/01/24 20:16:45;;;;;;;10.60;6.67;;;;;;;1.65;55.07;101052.41;1726452;80;21569;-54
2022/01/24 20:19:12;;;;;;;10.15;6.78;;;;;;;1.65;55.07;101052.41;1728038;80;22272;-54
2022/01/24 20:21:40;;;;;;;11.12;6.67;;;;;;;1.64;55.39;101045.47;1725940;80;21577;-53